sensor_id;sensor_type;location;lat;lon;timestamp;pressure;altitude;pressure_sealevel;temperature;humidity
34081;BME280;20358;50.272;19.026;2023-08-12T00:00:22;98835.94;;;21.08;55.28
34081;BME280;20358;50.272;19.026;2023-08-12T00:03:29;98836.06;;;21.06;55.33
34081;BME280;20358;50.272;19.026;2023-08-12T00:06:35;98834.59;;;21.02;55.78
34081;BME280;20358;50.272;19.026;2023-08-12T00:09:42;98831.63;;;20.95;55.94
34081;BME280;20358;50.272;19.026;2023-08-12T00:12:48;98834.66;;;20.91;54.89
34081;BME280;20358;50.272;19.026;2023-08-12T00:15:57;98832.53;;;20.85;55.40
34081;BME280;20358;50.272;19.026;2023-08-12T00:19:04;98842.31;;;20.84;55.38
34081;BME280;20358;50.272;19.026;2023-08-12T00:22:18;98837.13;;;20.83;55.61
34081;BME280;20358;50.272;19.026;2023-08-12T00:25:26;98835.69;;;20.79;55.50
34081;BME280;20358;50.272;19.026;2023-08-12T00:28:34;98836.78;;;20.76;55.48
34081;BME280;20358;50.272;19.026;2023-08-12T00:31:43;98827.75;;;20.68;55.74
34081;BME280;20358;50.272;19.026;2023-08-12T00:34:50;98828.72;;;20.67;55.68
34081;BME280;20358;50.272;19.026;2023-08-12T00:37:57;98834.28;;;20.64;55.47
34081;BME280;20358;50.272;19.026;2023-08-12T00:41:03;98828.38;;;20.60;55.60
34081;BME280;20358;50.272;19.026;2023-08-12T00:44:10;98833.47;;;20.52;55.55
34081;BME280;20358;50.272;19.026;2023-08-12T00:47:21;98827.69;;;20.47;55.74
34081;BME280;20358;50.272;19.026;2023-08-12T00:50:28;98822.16;;;20.39;56.02
34081;BME280;20358;50.272;19.026;2023-08-12T00:53:36;98827.22;;;20.42;56.23
34081;BME280;20358;50.272;19.026;2023-08-12T00:56:43;98808.19;;;20.26;56.43
34081;BME280;20358;50.272;19.026;2023-08-12T00:59:50;98822.22;;;20.28;56.62
34081;BME280;20358;50.272;19.026;2023-08-12T01:03:00;98826.91;;;20.24;56.88
34081;BME280;20358;50.272;19.026;2023-08-12T01:06:08;98822.56;;;20.23;56.70
34081;BME280;20358;50.272;19.026;2023-08-12T01:09:15;98824.25;;;20.24;56.68
34081;BME280;20358;50.272;19.026;2023-08-12T01:12:29;98822.56;;;20.23;56.62
34081;BME280;20358;50.272;19.026;2023-08-12T01:15:48;98825.31;;;20.22;57.23
34081;BME280;20358;50.272;19.026;2023-08-12T01:19:06;98820.78;;;20.13;57.92
34081;BME280;20358;50.272;19.026;2023-08-12T01:22:23;98817.63;;;20.08;57.89
34081;BME280;20358;50.272;19.026;2023-08-12T01:25:38;98821.34;;;20.05;57.70
34081;BME280;20358;50.272;19.026;2023-08-12T01:28:46;98824.28;;;20.02;58.13
34081;BME280;20358;50.272;19.026;2023-08-12T01:32:03;98829.22;;;19.96;58.31
34081;BME280;20358;50.272;19.026;2023-08-12T01:35:21;98832.00;;;19.94;58.74
34081;BME280;20358;50.272;19.026;2023-08-12T01:38:34;98830.31;;;19.93;59.07
34081;BME280;20358;50.272;19.026;2023-08-12T01:41:51;98825.25;;;19.90;59.24
34081;BME280;20358;50.272;19.026;2023-08-12T01:44:58;98839.50;;;19.89;59.33
34081;BME280;20358;50.272;19.026;2023-08-12T01:48:06;98845.88;;;19.87;59.78
34081;BME280;20358;50.272;19.026;2023-08-12T01:51:14;98839.72;;;19.86;59.82
34081;BME280;20358;50.272;19.026;2023-08-12T01:54:21;98844.19;;;19.86;59.54
34081;BME280;20358;50.272;19.026;2023-08-12T01:57:29;98842.50;;;19.85;60.00
34081;BME280;20358;50.272;19.026;2023-08-12T02:00:39;98845.28;;;19.83;59.69
34081;BME280;20358;50.272;19.026;2023-08-12T02:03:46;98843.00;;;19.78;59.79
34081;BME280;20358;50.272;19.026;2023-08-12T02:06:58;98842.38;;;19.75;60.01
34081;BME280;20358;50.272;19.026;2023-08-12T02:10:04;98846.13;;;19.72;60.29
34081;BME280;20358;50.272;19.026;2023-08-12T02:13:14;98846.25;;;19.71;59.92
34081;BME280;20358;50.272;19.026;2023-08-12T02:16:20;98849.13;;;19.68;60.25
34081;BME280;20358;50.272;19.026;2023-08-12T02:19:28;98846.72;;;19.65;60.23
34081;BME280;20358;50.272;19.026;2023-08-12T02:22:34;98852.03;;;19.65;60.39
34081;BME280;20358;50.272;19.026;2023-08-12T02:25:40;98855.75;;;19.62;60.33
34081;BME280;20358;50.272;19.026;2023-08-12T02:28:52;98854.19;;;19.60;60.57
34081;BME280;20358;50.272;19.026;2023-08-12T02:32:01;98862.16;;;19.60;60.14
34081;BME280;20358;50.272;19.026;2023-08-12T02:35:08;98848.50;;;19.53;60.75
34081;BME280;20358;50.272;19.026;2023-08-12T02:38:15;98855.75;;;19.51;60.35
34081;BME280;20358;50.272;19.026;2023-08-12T02:41:20;98863.84;;;19.50;60.21
34081;BME280;20358;50.272;19.026;2023-08-12T02:44:32;98855.16;;;19.48;60.61
34081;BME280;20358;50.272;19.026;2023-08-12T02:47:38;98847.53;;;19.43;60.78
34081;BME280;20358;50.272;19.026;2023-08-12T02:50:45;98852.25;;;19.40;60.80
34081;BME280;20358;50.272;19.026;2023-08-12T02:53:51;98855.97;;;19.37;60.71
34081;BME280;20358;50.272;19.026;2023-08-12T02:56:58;98850.97;;;19.33;60.66
34081;BME280;20358;50.272;19.026;2023-08-12T03:00:08;98852.91;;;19.31;60.85
34081;BME280;20358;50.272;19.026;2023-08-12T03:03:16;98844.47;;;19.26;60.79
34081;BME280;20358;50.272;19.026;2023-08-12T03:06:24;98829.28;;;19.16;60.87
34081;BME280;20358;50.272;19.026;2023-08-12T03:09:36;98846.63;;;19.20;60.94
34081;BME280;20358;50.272;19.026;2023-08-12T03:12:43;98846.00;;;19.17;61.01
34081;BME280;20358;50.272;19.026;2023-08-12T03:15:53;98833.81;;;19.14;60.77
34081;BME280;20358;50.272;19.026;2023-08-12T03:19:00;98831.44;;;19.11;60.47
34081;BME280;20358;50.272;19.026;2023-08-12T03:22:09;98836.13;;;19.08;60.85
34081;BME280;20358;50.272;19.026;2023-08-12T03:25:18;98837.19;;;19.05;60.99
34081;BME280;20358;50.272;19.026;2023-08-12T03:28:28;98834.63;;;19.04;60.99
34081;BME280;20358;50.272;19.026;2023-08-12T03:31:38;98831.28;;;19.02;61.23
34081;BME280;20358;50.272;19.026;2023-08-12T03:34:46;98842.72;;;19.02;60.89
34081;BME280;20358;50.272;19.026;2023-08-12T03:37:52;98834.72;;;18.91;61.28
34081;BME280;20358;50.272;19.026;2023-08-12T03:40:59;98846.56;;;18.98;61.29
34081;BME280;20358;50.272;19.026;2023-08-12T03:44:06;98834.28;;;18.97;61.48
34081;BME280;20358;50.272;19.026;2023-08-12T03:47:16;98834.91;;;19.01;61.32
34081;BME280;20358;50.272;19.026;2023-08-12T03:50:27;98838.28;;;19.03;61.35
34081;BME280;20358;50.272;19.026;2023-08-12T03:53:36;98842.25;;;19.08;61.65
34081;BME280;20358;50.272;19.026;2023-08-12T03:56:47;98838.41;;;19.12;61.71
34081;BME280;20358;50.272;19.026;2023-08-12T03:59:55;98828.78;;;19.11;61.72
34081;BME280;20358;50.272;19.026;2023-08-12T04:03:03;98839.28;;;19.24;61.79
34081;BME280;20358;50.272;19.026;2023-08-12T04:06:10;98847.59;;;19.31;61.83
34081;BME280;20358;50.272;19.026;2023-08-12T04:09:16;98846.28;;;19.36;61.93
34081;BME280;20358;50.272;19.026;2023-08-12T04:12:26;98848.38;;;19.44;61.84
34081;BME280;20358;50.272;19.026;2023-08-12T04:15:32;98832.47;;;19.44;61.58
34081;BME280;20358;50.272;19.026;2023-08-12T04:18:42;98834.06;;;19.57;61.53
34081;BME280;20358;50.272;19.026;2023-08-12T04:21:48;98841.66;;;19.62;61.33
34081;BME280;20358;50.272;19.026;2023-08-12T04:24:55;98844.78;;;19.67;61.48
34081;BME280;20358;50.272;19.026;2023-08-12T04:28:01;98841.44;;;19.76;61.53
34081;BME280;20358;50.272;19.026;2023-08-12T04:31:10;98848.88;;;19.82;61.48
34081;BME280;20358;50.272;19.026;2023-08-12T04:34:21;98848.16;;;19.91;61.87
34081;BME280;20358;50.272;19.026;2023-08-12T04:37:30;98841.53;;;19.97;61.67
34081;BME280;20358;50.272;19.026;2023-08-12T04:40:39;98844.06;;;20.09;61.63
34081;BME280;20358;50.272;19.026;2023-08-12T04:43:47;98841.63;;;20.17;60.98
34081;BME280;20358;50.272;19.026;2023-08-12T04:46:54;98850.56;;;20.27;61.12
34081;BME280;20358;50.272;19.026;2023-08-12T04:50:06;98840.88;;;20.37;60.57
34081;BME280;20358;50.272;19.026;2023-08-12T04:53:17;98841.81;;;20.48;60.30
34081;BME280;20358;50.272;19.026;2023-08-12T04:56:24;98848.06;;;20.58;60.10
34081;BME280;20358;50.272;19.026;2023-08-12T04:59:31;98846.34;;;20.68;60.41
34081;BME280;20358;50.272;19.026;2023-08-12T05:02:41;98848.00;;;20.80;60.17
34081;BME280;20358;50.272;19.026;2023-08-12T05:05:52;98850.88;;;20.88;59.66
34081;BME280;20358;50.272;19.026;2023-08-12T05:09:04;98852.63;;;20.98;59.62
34081;BME280;20358;50.272;19.026;2023-08-12T05:12:12;98851.75;;;21.09;59.76
34081;BME280;20358;50.272;19.026;2023-08-12T05:15:19;98850.84;;;21.20;59.42
34081;BME280;20358;50.272;19.026;2023-08-12T05:18:32;98837.69;;;21.18;59.05
34081;BME280;20358;50.272;19.026;2023-08-12T05:21:41;98838.09;;;21.34;58.47
34081;BME280;20358;50.272;19.026;2023-08-12T05:24:47;98845.16;;;21.45;58.40
34081;BME280;20358;50.272;19.026;2023-08-12T05:27:55;98839.88;;;21.54;58.42
34081;BME280;20358;50.272;19.026;2023-08-12T05:31:04;98829.22;;;21.54;57.78
34081;BME280;20358;50.272;19.026;2023-08-12T05:34:15;98847.22;;;21.72;57.79
34081;BME280;20358;50.272;19.026;2023-08-12T05:37:26;98857.09;;;21.81;57.29
34081;BME280;20358;50.272;19.026;2023-08-12T05:40:36;98850.03;;;21.91;57.11
34081;BME280;20358;50.272;19.026;2023-08-12T05:43:44;98852.16;;;21.97;56.92
34081;BME280;20358;50.272;19.026;2023-08-12T05:46:52;98847.28;;;22.11;56.71
34081;BME280;20358;50.272;19.026;2023-08-12T05:50:00;98851.66;;;22.22;56.52
34081;BME280;20358;50.272;19.026;2023-08-12T05:53:09;98853.94;;;22.36;55.62
34081;BME280;20358;50.272;19.026;2023-08-12T05:56:15;98853.97;;;22.46;55.17
34081;BME280;20358;50.272;19.026;2023-08-12T05:59:22;98852.28;;;22.54;54.74
34081;BME280;20358;50.272;19.026;2023-08-12T06:02:31;98844.47;;;22.62;54.94
34081;BME280;20358;50.272;19.026;2023-08-12T06:05:40;98854.31;;;22.71;54.81
34081;BME280;20358;50.272;19.026;2023-08-12T06:08:50;98853.47;;;22.80;54.27
34081;BME280;20358;50.272;19.026;2023-08-12T06:11:57;98846.63;;;22.88;54.16
34081;BME280;20358;50.272;19.026;2023-08-12T06:15:07;98848.69;;;22.94;53.83
34081;BME280;20358;50.272;19.026;2023-08-12T06:18:14;98849.41;;;22.96;53.56
34081;BME280;20358;50.272;19.026;2023-08-12T06:21:20;98846.88;;;23.04;53.20
34081;BME280;20358;50.272;19.026;2023-08-12T06:24:29;98845.34;;;23.11;52.96
34081;BME280;20358;50.272;19.026;2023-08-12T06:27:35;98851.09;;;23.16;52.76
34081;BME280;20358;50.272;19.026;2023-08-12T06:30:45;98850.22;;;23.25;53.07
34081;BME280;20358;50.272;19.026;2023-08-12T06:33:51;98845.16;;;23.31;52.83
34081;BME280;20358;50.272;19.026;2023-08-12T06:36:58;98845.00;;;23.42;52.71
34081;BME280;20358;50.272;19.026;2023-08-12T06:40:08;98843.88;;;23.55;52.34
34081;BME280;20358;50.272;19.026;2023-08-12T06:43:15;98845.25;;;23.68;52.11
34081;BME280;20358;50.272;19.026;2023-08-12T06:46:21;98842.66;;;23.76;52.07
34081;BME280;20358;50.272;19.026;2023-08-12T06:49:29;98841.81;;;23.85;51.73
34081;BME280;20358;50.272;19.026;2023-08-12T06:52:35;98851.75;;;23.93;51.38
34081;BME280;20358;50.272;19.026;2023-08-12T06:55:46;98836.28;;;23.96;50.99
34081;BME280;20358;50.272;19.026;2023-08-12T06:58:52;98841.16;;;24.11;50.76
34081;BME280;20358;50.272;19.026;2023-08-12T07:01:59;98834.22;;;24.18;50.75
34081;BME280;20358;50.272;19.026;2023-08-12T07:05:06;98832.66;;;24.25;49.78
34081;BME280;20358;50.272;19.026;2023-08-12T07:08:14;98845.25;;;24.32;49.51
34081;BME280;20358;50.272;19.026;2023-08-12T07:11:23;98844.22;;;24.43;49.21
34081;BME280;20358;50.272;19.026;2023-08-12T07:14:31;98845.97;;;24.52;48.42
34081;BME280;20358;50.272;19.026;2023-08-12T07:17:41;98845.09;;;24.61;47.91
34081;BME280;20358;50.272;19.026;2023-08-12T07:20:47;98848.66;;;24.69;47.56
34081;BME280;20358;50.272;19.026;2023-08-12T07:23:54;98837.53;;;24.74;47.76
34081;BME280;20358;50.272;19.026;2023-08-12T07:27:09;98843.69;;;24.84;47.16
34081;BME280;20358;50.272;19.026;2023-08-12T07:30:15;98839.06;;;24.94;46.96
34081;BME280;20358;50.272;19.026;2023-08-12T07:33:25;98838.84;;;25.05;46.96
34081;BME280;20358;50.272;19.026;2023-08-12T07:36:34;98831.88;;;25.12;45.85
34081;BME280;20358;50.272;19.026;2023-08-12T07:39:40;98819.53;;;25.19;45.70
34081;BME280;20358;50.272;19.026;2023-08-12T07:42:51;98819.25;;;25.22;45.63
34081;BME280;20358;50.272;19.026;2023-08-12T07:46:01;98824.81;;;25.29;45.13
34081;BME280;20358;50.272;19.026;2023-08-12T07:49:13;98819.66;;;25.36;44.97
34081;BME280;20358;50.272;19.026;2023-08-12T07:52:26;98824.41;;;25.42;43.52
34081;BME280;20358;50.272;19.026;2023-08-12T07:55:35;98804.16;;;25.39;43.14
34081;BME280;20358;50.272;19.026;2023-08-12T07:58:50;98820.19;;;25.57;43.14
34081;BME280;20358;50.272;19.026;2023-08-12T08:01:58;98813.34;;;25.62;42.63
34081;BME280;20358;50.272;19.026;2023-08-12T08:05:08;98798.81;;;25.65;41.88
34081;BME280;20358;50.272;19.026;2023-08-12T08:08:16;98810.91;;;25.77;42.18
34081;BME280;20358;50.272;19.026;2023-08-12T08:11:24;98815.47;;;25.84;42.43
34081;BME280;20358;50.272;19.026;2023-08-12T08:14:36;98817.50;;;25.91;41.57
34081;BME280;20358;50.272;19.026;2023-08-12T08:17:43;98819.38;;;25.98;41.64
34081;BME280;20358;50.272;19.026;2023-08-12T08:20:50;98819.75;;;26.03;41.14
34081;BME280;20358;50.272;19.026;2023-08-12T08:23:59;98810.72;;;26.04;40.92
34081;BME280;20358;50.272;19.026;2023-08-12T08:27:05;98813.75;;;26.09;40.67
34081;BME280;20358;50.272;19.026;2023-08-12T08:30:14;98818.66;;;26.14;40.56
34081;BME280;20358;50.272;19.026;2023-08-12T08:33:21;98814.47;;;26.19;40.79
34081;BME280;20358;50.272;19.026;2023-08-12T08:36:27;98820.19;;;26.24;39.44
34081;BME280;20358;50.272;19.026;2023-08-12T08:39:34;98819.31;;;26.16;39.74
34081;BME280;20358;50.272;19.026;2023-08-12T08:42:41;98815.13;;;26.13;39.65
34081;BME280;20358;50.272;19.026;2023-08-12T08:45:56;98808.06;;;26.12;39.63
34081;BME280;20358;50.272;19.026;2023-08-12T08:49:12;98800.41;;;26.17;40.24
34081;BME280;20358;50.272;19.026;2023-08-12T08:52:23;98805.59;;;26.19;39.97
34081;BME280;20358;50.272;19.026;2023-08-12T08:55:33;98807.28;;;26.28;40.20
34081;BME280;20358;50.272;19.026;2023-08-12T08:58:51;98815.69;;;26.25;38.81
34081;BME280;20358;50.272;19.026;2023-08-12T09:02:02;98812.13;;;26.16;38.25
34081;BME280;20358;50.272;19.026;2023-08-12T09:05:11;98807.44;;;26.18;38.74
34081;BME280;20358;50.272;19.026;2023-08-12T09:08:20;98805.38;;;26.12;39.18
34081;BME280;20358;50.272;19.026;2023-08-12T09:11:30;98804.09;;;26.16;39.28
34081;BME280;20358;50.272;19.026;2023-08-12T09:14:41;98806.09;;;26.14;39.14
34081;BME280;20358;50.272;19.026;2023-08-12T09:17:52;98801.44;;;26.24;39.44
34081;BME280;20358;50.272;19.026;2023-08-12T09:21:03;98799.59;;;26.33;39.70
34081;BME280;20358;50.272;19.026;2023-08-12T09:24:09;98786.56;;;26.38;39.45
34081;BME280;20358;50.272;19.026;2023-08-12T09:27:19;98783.06;;;26.45;39.36
34081;BME280;20358;50.272;19.026;2023-08-12T09:30:32;98783.41;;;26.51;39.78
34081;BME280;20358;50.272;19.026;2023-08-12T09:33:42;98776.03;;;26.53;39.40
34081;BME280;20358;50.272;19.026;2023-08-12T09:36:49;98776.03;;;26.61;39.53
34081;BME280;20358;50.272;19.026;2023-08-12T09:39:57;98768.81;;;26.69;39.26
34081;BME280;20358;50.272;19.026;2023-08-12T09:43:07;98765.34;;;26.77;39.15
34081;BME280;20358;50.272;19.026;2023-08-12T09:46:18;98766.69;;;26.81;39.09
34081;BME280;20358;50.272;19.026;2023-08-12T09:49:32;98768.00;;;26.85;38.92
34081;BME280;20358;50.272;19.026;2023-08-12T09:52:39;98762.50;;;26.86;39.25
34081;BME280;20358;50.272;19.026;2023-08-12T09:55:48;98764.16;;;26.87;39.62
34081;BME280;20358;50.272;19.026;2023-08-12T09:59:03;98768.69;;;26.95;39.49
34081;BME280;20358;50.272;19.026;2023-08-12T10:02:15;98760.63;;;27.03;39.25
34081;BME280;20358;50.272;19.026;2023-08-12T10:05:28;98754.06;;;27.05;38.79
34081;BME280;20358;50.272;19.026;2023-08-12T10:08:37;98759.97;;;27.09;38.72
34081;BME280;20358;50.272;19.026;2023-08-12T10:11:46;98748.88;;;27.12;38.68
34081;BME280;20358;50.272;19.026;2023-08-12T10:14:57;98744.84;;;27.16;38.84
34081;BME280;20358;50.272;19.026;2023-08-12T10:18:06;98741.66;;;27.21;38.93
34081;BME280;20358;50.272;19.026;2023-08-12T10:21:17;98741.81;;;27.27;39.06
34081;BME280;20358;50.272;19.026;2023-08-12T10:24:27;98745.16;;;27.29;38.21
34081;BME280;20358;50.272;19.026;2023-08-12T10:27:33;98746.50;;;27.33;38.60
34081;BME280;20358;50.272;19.026;2023-08-12T10:30:40;98737.78;;;27.31;38.41
34081;BME280;20358;50.272;19.026;2023-08-12T10:33:47;98743.16;;;27.31;38.36
34081;BME280;20358;50.272;19.026;2023-08-12T10:37:02;98737.06;;;27.37;38.64
34081;BME280;20358;50.272;19.026;2023-08-12T10:40:21;98740.44;;;27.39;38.20
34081;BME280;20358;50.272;19.026;2023-08-12T10:43:48;98734.91;;;27.49;38.46
34081;BME280;20358;50.272;19.026;2023-08-12T10:46:58;98725.00;;;27.49;38.28
34081;BME280;20358;50.272;19.026;2023-08-12T10:50:16;98728.00;;;27.54;38.80
34081;BME280;20358;50.272;19.026;2023-08-12T10:53:27;98734.91;;;27.49;37.95
34081;BME280;20358;50.272;19.026;2023-08-12T11:00:19;98722.09;;;27.67;38.02
34081;BME280;20358;50.272;19.026;2023-08-12T11:03:32;98713.50;;;27.72;37.44
34081;BME280;20358;50.272;19.026;2023-08-12T11:06:45;98714.81;;;27.76;37.08
34081;BME280;20358;50.272;19.026;2023-08-12T11:09:59;98699.06;;;27.73;37.15
34081;BME280;20358;50.272;19.026;2023-08-12T11:13:10;98715.47;;;27.86;37.95
34081;BME280;20358;50.272;19.026;2023-08-12T11:16:17;98713.75;;;27.85;37.22
34081;BME280;20358;50.272;19.026;2023-08-12T11:19:24;98701.81;;;27.87;37.68
34081;BME280;20358;50.272;19.026;2023-08-12T11:22:33;98711.03;;;27.93;37.47
34081;BME280;20358;50.272;19.026;2023-08-12T11:25:47;98701.25;;;28.00;37.73
34081;BME280;20358;50.272;19.026;2023-08-12T11:28:56;98697.72;;;28.07;37.55
34081;BME280;20358;50.272;19.026;2023-08-12T11:32:05;98702.38;;;28.13;37.36
34081;BME280;20358;50.272;19.026;2023-08-12T11:35:15;98708.25;;;28.17;36.90
34081;BME280;20358;50.272;19.026;2023-08-12T11:38:23;98699.00;;;28.19;36.87
34081;BME280;20358;50.272;19.026;2023-08-12T11:41:33;98694.38;;;28.28;36.96
34081;BME280;20358;50.272;19.026;2023-08-12T11:44:40;98703.09;;;28.30;36.81
34081;BME280;20358;50.272;19.026;2023-08-12T11:47:47;98689.00;;;28.28;35.56
34081;BME280;20358;50.272;19.026;2023-08-12T11:50:57;98687.09;;;28.37;35.44
34081;BME280;20358;50.272;19.026;2023-08-12T11:54:04;98684.22;;;28.38;36.35
34081;BME280;20358;50.272;19.026;2023-08-12T11:57:13;98685.53;;;28.42;36.62
34081;BME280;20358;50.272;19.026;2023-08-12T12:00:21;98678.13;;;28.44;37.51
34081;BME280;20358;50.272;19.026;2023-08-12T12:03:32;98676.44;;;28.43;37.10
34081;BME280;20358;50.272;19.026;2023-08-12T12:06:42;98669.06;;;28.45;36.92
34081;BME280;20358;50.272;19.026;2023-08-12T12:09:51;98650.50;;;28.50;37.43
34081;BME280;20358;50.272;19.026;2023-08-12T12:13:02;98651.66;;;28.56;36.75
34081;BME280;20358;50.272;19.026;2023-08-12T12:16:15;98647.56;;;28.60;36.77
34081;BME280;20358;50.272;19.026;2023-08-12T12:19:23;98648.72;;;28.65;36.90
34081;BME280;20358;50.272;19.026;2023-08-12T12:22:32;98636.41;;;28.71;36.54
34081;BME280;20358;50.272;19.026;2023-08-12T12:25:41;98626.75;;;28.76;36.84
34081;BME280;20358;50.272;19.026;2023-08-12T12:28:53;98630.00;;;28.86;36.27
34081;BME280;20358;50.272;19.026;2023-08-12T12:32:01;98632.44;;;28.96;36.17
34081;BME280;20358;50.272;19.026;2023-08-12T12:35:11;98621.47;;;28.98;35.60
34081;BME280;20358;50.272;19.026;2023-08-12T12:38:18;98625.03;;;29.13;36.50
34081;BME280;20358;50.272;19.026;2023-08-12T12:41:24;98633.03;;;29.21;35.73
34081;BME280;20358;50.272;19.026;2023-08-12T12:44:33;98627.25;;;29.24;35.57
34081;BME280;20358;50.272;19.026;2023-08-12T12:47:39;98621.13;;;29.30;35.84
34081;BME280;20358;50.272;19.026;2023-08-12T12:50:46;98618.34;;;29.38;36.17
34081;BME280;20358;50.272;19.026;2023-08-12T12:53:53;98621.66;;;29.40;35.80
34081;BME280;20358;50.272;19.026;2023-08-12T12:57:01;98617.03;;;29.34;35.08
34081;BME280;20358;50.272;19.026;2023-08-12T13:00:11;98609.50;;;29.29;35.27
34081;BME280;20358;50.272;19.026;2023-08-12T13:03:20;98612.84;;;29.31;35.50
34081;BME280;20358;50.272;19.026;2023-08-12T13:06:26;98603.66;;;29.40;35.75
34081;BME280;20358;50.272;19.026;2023-08-12T13:09:33;98600.66;;;29.50;35.32
34081;BME280;20358;50.272;19.026;2023-08-12T13:12:45;98608.25;;;29.61;35.41
34081;BME280;20358;50.272;19.026;2023-08-12T13:15:54;98604.41;;;29.70;35.21
34081;BME280;20358;50.272;19.026;2023-08-12T13:19:04;98610.09;;;29.75;35.06
34081;BME280;20358;50.272;19.026;2023-08-12T13:22:12;98604.69;;;29.75;35.18
34081;BME280;20358;50.272;19.026;2023-08-12T13:25:21;98602.94;;;29.82;35.31
34081;BME280;20358;50.272;19.026;2023-08-12T13:28:31;98598.81;;;29.86;34.87
34081;BME280;20358;50.272;19.026;2023-08-12T13:31:46;98588.28;;;29.91;34.68
34081;BME280;20358;50.272;19.026;2023-08-12T13:34:53;98592.66;;;29.92;34.03
34081;BME280;20358;50.272;19.026;2023-08-12T13:38:03;98584.97;;;29.89;34.11
34081;BME280;20358;50.272;19.026;2023-08-12T13:41:10;98584.59;;;29.92;34.23
34081;BME280;20358;50.272;19.026;2023-08-12T13:44:20;98588.56;;;29.96;34.81
34081;BME280;20358;50.272;19.026;2023-08-12T13:47:33;98579.13;;;30.07;35.10
34081;BME280;20358;50.272;19.026;2023-08-12T13:50:41;98577.75;;;30.18;34.93
34081;BME280;20358;50.272;19.026;2023-08-12T13:53:47;98580.28;;;30.19;34.24
34081;BME280;20358;50.272;19.026;2023-08-12T13:56:53;98575.88;;;30.12;34.11
34081;BME280;20358;50.272;19.026;2023-08-12T14:00:00;98576.50;;;30.14;34.13
34081;BME280;20358;50.272;19.026;2023-08-12T14:03:16;98565.50;;;30.15;34.33
34081;BME280;20358;50.272;19.026;2023-08-12T14:06:22;98555.81;;;30.21;34.95
34081;BME280;20358;50.272;19.026;2023-08-12T14:09:29;98555.91;;;30.34;34.75
34081;BME280;20358;50.272;19.026;2023-08-12T14:12:36;98555.22;;;30.46;34.86
34081;BME280;20358;50.272;19.026;2023-08-12T14:15:43;98551.13;;;30.57;34.40
34081;BME280;20358;50.272;19.026;2023-08-12T14:18:53;98547.44;;;30.64;33.85
34081;BME280;20358;50.272;19.026;2023-08-12T14:21:59;98542.50;;;30.68;33.41
34081;BME280;20358;50.272;19.026;2023-08-12T14:25:07;98542.09;;;30.71;33.56
34081;BME280;20358;50.272;19.026;2023-08-12T14:28:16;98538.41;;;30.79;33.53
34081;BME280;20358;50.272;19.026;2023-08-12T14:31:25;98549.06;;;30.87;33.46
34081;BME280;20358;50.272;19.026;2023-08-12T14:34:33;98537.81;;;30.90;32.45
34081;BME280;20358;50.272;19.026;2023-08-12T14:37:41;98545.13;;;30.89;32.61
34081;BME280;20358;50.272;19.026;2023-08-12T14:40:47;98541.00;;;30.93;32.63
34081;BME280;20358;50.272;19.026;2023-08-12T14:43:55;98529.41;;;30.99;32.31
34081;BME280;20358;50.272;19.026;2023-08-12T14:47:01;98532.34;;;31.04;31.82
34081;BME280;20358;50.272;19.026;2023-08-12T14:50:10;98527.78;;;31.05;32.24
34081;BME280;20358;50.272;19.026;2023-08-12T14:53:16;98510.75;;;31.04;32.21
34081;BME280;20358;50.272;19.026;2023-08-12T14:56:25;98520.31;;;31.13;32.00
34081;BME280;20358;50.272;19.026;2023-08-12T14:59:31;98524.06;;;31.12;32.63
34081;BME280;20358;50.272;19.026;2023-08-12T15:02:38;98521.00;;;31.22;31.99
34081;BME280;20358;50.272;19.026;2023-08-12T15:05:58;98509.56;;;31.26;31.68
34081;BME280;20358;50.272;19.026;2023-08-12T15:09:09;98507.91;;;31.25;32.33
34081;BME280;20358;50.272;19.026;2023-08-12T15:12:15;98504.16;;;31.26;32.04
34081;BME280;20358;50.272;19.026;2023-08-12T15:15:25;98494.41;;;31.25;32.10
34081;BME280;20358;50.272;19.026;2023-08-12T15:18:31;98497.56;;;31.36;32.23
34081;BME280;20358;50.272;19.026;2023-08-12T15:21:41;98495.69;;;31.43;31.83
34081;BME280;20358;50.272;19.026;2023-08-12T15:24:51;98488.81;;;31.34;31.69
34081;BME280;20358;50.272;19.026;2023-08-12T15:28:00;98495.94;;;31.48;32.06
34081;BME280;20358;50.272;19.026;2023-08-12T15:31:12;98488.50;;;31.63;31.26
34081;BME280;20358;50.272;19.026;2023-08-12T15:34:20;98482.69;;;31.85;31.47
34081;BME280;20358;50.272;19.026;2023-08-12T15:37:29;98484.38;;;32.19;30.88
34081;BME280;20358;50.272;19.026;2023-08-12T15:40:36;98479.31;;;32.75;30.85
34081;BME280;20358;50.272;19.026;2023-08-12T15:43:43;98487.81;;;33.36;29.81
34081;BME280;20358;50.272;19.026;2023-08-12T15:46:50;98488.28;;;33.96;28.53
34081;BME280;20358;50.272;19.026;2023-08-12T15:49:56;98487.75;;;34.61;27.75
34081;BME280;20358;50.272;19.026;2023-08-12T15:53:07;98483.22;;;35.28;27.44
34081;BME280;20358;50.272;19.026;2023-08-12T15:56:13;98477.78;;;35.87;26.80
34081;BME280;20358;50.272;19.026;2023-08-12T15:59:20;98472.41;;;36.34;26.16
34081;BME280;20358;50.272;19.026;2023-08-12T16:02:27;98474.25;;;36.91;25.29
34081;BME280;20358;50.272;19.026;2023-08-12T16:05:35;98467.72;;;37.44;24.63
34081;BME280;20358;50.272;19.026;2023-08-12T16:08:46;98481.16;;;37.62;23.83
34081;BME280;20358;50.272;19.026;2023-08-12T16:12:12;98480.34;;;37.78;23.64
34081;BME280;20358;50.272;19.026;2023-08-12T16:15:22;98482.66;;;37.69;23.31
34081;BME280;20358;50.272;19.026;2023-08-12T16:18:30;98481.88;;;37.85;22.80
34081;BME280;20358;50.272;19.026;2023-08-12T16:21:36;98477.75;;;38.16;22.72
34081;BME280;20358;50.272;19.026;2023-08-12T16:24:46;98472.66;;;38.36;22.32
34081;BME280;20358;50.272;19.026;2023-08-12T16:27:52;98470.78;;;38.59;22.40
34081;BME280;20358;50.272;19.026;2023-08-12T16:30:58;98481.34;;;38.72;21.78